Time;durP1;ratioP1;P1;durP2;ratioP2;P2;SDS_P1;SDS_P2;PMS_P1;PMS_P2;Temp;Humidity;BMP_temperature;BMP_pressure;BME280_temperature;BME280_humidity;BME280_pressure;Samples;Min_cycle;Max_cycle;Signal;HPM_P1;HPM_P2
2024/02/02 09:33:14;;;;;;;;;;;;;;;4.55;51.40;100260.91;5390564;22;19976;-86
2024/02/02 09:45:34;;;;;;;;;;;;;;;4.94;57.53;100252.47;5117030;22;19932;-85
2024/02/02 09:51:11;;;;;;;;;;;;;;;5.44;56.39;100247.50;5059807;28;20344;-88
2024/02/02 09:53:53;;;;;;;;;;;;;;;5.64;58.00;100244.03;5022534;28;20370;-88
2024/02/02 09:56:51;;;;;;;;;;;;;;;5.81;56.60;100242.59;5024398;28;19973;-90
2024/02/02 09:59:36;;;;;;;;;;;;;;;6.00;55.62;100244.53;4991995;28;19917;-91
2024/02/02 10:02:04;;;;;;;;;;;;;;;6.11;57.75;100235.75;5010207;28;19917;-91
2024/02/02 10:04:36;;;;;;;;;;;;;;;6.22;55.23;100241.72;5011384;28;20015;-91
2024/02/02 10:07:09;;;;;;;;;;;;;;;6.32;55.66;100241.75;5016871;28;20330;-89
2024/02/02 10:09:41;;;;;;;;;;;;;;;6.36;58.23;100233.50;5003247;28;20044;-91
2024/02/02 10:12:12;;;;;;;;;;;;;;;6.44;56.50;100224.94;5010989;28;20471;-88
2024/02/02 10:14:55;;;;;;;;;;;;;;;6.48;58.02;100234.22;5012262;28;19924;-90
2024/02/02 10:17:23;;;;;;;;;;;;;;;6.56;53.74;100239.59;5013038;28;19913;-89
2024/02/02 10:19:58;;;;;;;;;;;;;;;6.58;55.47;100237.69;5011386;28;19921;-89
2024/02/02 10:22:32;;;;;;;;;;;;;;;6.61;53.13;100233.94;5003550;28;19975;-90
2024/02/02 10:24:57;;;;;;;;;;;;;;;6.64;57.11;100244.19;5013015;28;20284;-90
2024/02/02 10:27:37;;;;;;;;;;;;;;;6.69;54.96;100242.00;5011577;28;19975;-89
2024/02/02 10:30:22;;;;;;;;;;;;;;;6.72;56.55;100239.09;5011716;28;19918;-89
2024/02/02 10:32:56;;;;;;;;;;;;;;;6.74;56.51;100244.22;5002231;28;20413;-91
2024/02/02 10:35:27;;;;;;;;;;;;;;;6.75;55.49;100241.47;5012859;28;20027;-90
2024/02/02 10:37:53;;;;;;;;;;;;;;;6.74;57.16;100245.06;5012744;28;19939;-90
2024/02/02 10:40:27;;;;;;;;;;;;;;;6.72;56.77;100249.59;5000262;28;20036;-91
2024/02/02 10:43:12;;;;;;;;;;;;;;;6.75;55.63;100246.72;4994382;28;20007;-90
2024/02/02 10:45:54;;;;;;;;;;;;;;;6.75;58.87;100253.75;5011326;28;19971;-89
2024/02/02 10:48:28;;;;;;;;;;;;;;;6.76;55.75;100247.53;5028052;28;20004;-90
2024/02/02 10:50:53;;;;;;;;;;;;;;;6.74;58.62;100250.28;5012874;28;20013;-92
2024/02/02 10:53:28;;;;;;;;;;;;;;;6.75;56.89;100251.97;5012225;28;20406;-91
2024/02/02 10:56:08;;;;;;;;;;;;;;;6.71;57.10;100249.75;5012643;28;19924;-91
2024/02/02 10:58:46;;;;;;;;;;;;;;;6.75;57.07;100257.22;5013274;28;19913;-89
2024/02/02 11:01:22;;;;;;;;;;;;;;;6.75;56.48;100248.50;5025929;28;19971;-90
2024/02/02 11:04:06;;;;;;;;;;;;;;;6.73;56.39;100256.50;5004729;28;19921;-90
2024/02/02 11:06:42;;;;;;;;;;;;;;;6.74;58.47;100254.72;5000184;28;19918;-90
2024/02/02 11:09:43;;;;;;;;;;;;;;;6.73;58.24;100256.50;5010613;28;20294;-89
2024/02/02 11:12:14;;;;;;;;;;;;;;;6.77;57.34;100257.06;4937092;28;20311;-91
2024/02/02 11:14:43;;;;;;;;;;;;;;;6.74;59.76;100259.97;5006558;28;19917;-92
2024/02/02 11:17:08;;;;;;;;;;;;;;;6.73;57.76;100267.00;5028573;28;19996;-90
2024/02/02 11:19:44;;;;;;;;;;;;;;;6.75;57.14;100259.84;5028578;28;19953;-90
2024/02/02 11:22:28;;;;;;;;;;;;;;;6.75;58.37;100254.59;5022092;28;19968;-90
2024/02/02 11:25:13;;;;;;;;;;;;;;;6.76;57.42;100263.28;5011534;28;19922;-90
2024/02/02 11:27:38;;;;;;;;;;;;;;;6.75;58.57;100262.47;5006708;28;20403;-89
2024/02/02 11:30:05;;;;;;;;;;;;;;;6.76;58.99;100264.13;5009995;28;19918;-90
2024/02/02 11:33:06;;;;;;;;;;;;;;;6.77;59.24;100255.28;5006725;28;19917;-90
2024/02/02 11:35:44;;;;;;;;;;;;;;;6.76;59.19;100258.88;4936645;29;20307;-90
2024/02/02 11:38:09;;;;;;;;;;;;;;;6.77;58.39;100257.06;5011019;28;20329;-91
2024/02/02 11:40:35;;;;;;;;;;;;;;;6.78;59.48;100261.34;5004057;28;19921;-90
2024/02/02 11:43:02;;;;;;;;;;;;;;;6.82;58.56;100262.75;5007793;28;19924;-90
2024/02/02 11:45:30;;;;;;;;;;;;;;;6.82;58.35;100252.25;5010827;28;19921;-89
2024/02/02 11:48:07;;;;;;;;;;;;;;;6.81;58.06;100259.28;5027128;28;20425;-91
2024/02/02 11:50:37;;;;;;;;;;;;;;;6.82;56.79;100252.25;5006737;28;19918;-92
2024/02/02 11:53:22;;;;;;;;;;;;;;;6.78;57.63;100251.69;5011336;28;20389;-90
2024/02/02 11:55:48;;;;;;;;;;;;;;;6.81;56.79;100250.59;5027031;28;20452;-91
2024/02/02 11:58:14;;;;;;;;;;;;;;;6.81;57.76;100261.09;5007818;28;19975;-91
2024/02/02 12:00:54;;;;;;;;;;;;;;;6.80;56.51;100251.53;5025558;28;19913;-89
2024/02/02 12:03:29;;;;;;;;;;;;;;;6.78;56.62;100253.47;5000231;28;19918;-91
2024/02/02 12:06:14;;;;;;;;;;;;;;;6.78;56.76;100253.47;4994240;28;19976;-92
2024/02/02 12:08:50;;;;;;;;;;;;;;;6.77;55.85;100254.44;4994695;28;19918;-90
2024/02/02 12:11:17;;;;;;;;;;;;;;;6.72;55.35;100246.97;5001513;28;20000;-91
2024/02/02 12:13:44;;;;;;;;;;;;;;;6.68;55.72;100251.63;5010880;28;19914;-90
2024/02/02 12:16:10;;;;;;;;;;;;;;;6.65;56.38;100243.22;5026276;28;19914;-90
2024/02/02 12:18:37;;;;;;;;;;;;;;;6.62;56.12;100241.69;5019808;28;19922;-89
2024/02/02 12:21:03;;;;;;;;;;;;;;;6.59;56.04;100241.97;5019878;28;20398;-89
2024/02/02 12:23:28;;;;;;;;;;;;;;;6.55;55.90;100245.00;4993923;28;19918;-90
2024/02/02 12:25:58;;;;;;;;;;;;;;;6.51;55.45;100243.59;5006694;28;20405;-89
2024/02/02 12:28:23;;;;;;;;;;;;;;;6.50;55.21;100247.19;5010895;28;19920;-90
2024/02/02 12:30:49;;;;;;;;;;;;;;;6.48;55.49;100244.69;5009926;28;19996;-91
2024/02/02 12:33:19;;;;;;;;;;;;;;;6.47;55.46;100247.47;5007105;28;19932;-93
2024/02/02 12:35:45;;;;;;;;;;;;;;;6.46;54.38;100238.75;4997603;28;20382;-90
2024/02/02 12:38:18;;;;;;;;;;;;;;;6.47;54.22;100234.34;4996996;28;19918;-90
2024/02/02 12:40:44;;;;;;;;;;;;;;;6.46;55.11;100236.13;5010489;28;20094;-92
2024/02/02 12:43:09;;;;;;;;;;;;;;;6.47;56.14;100243.03;5008955;28;19921;-89
2024/02/02 12:45:37;;;;;;;;;;;;;;;6.48;56.06;100249.13;5004163;28;19929;-91
2024/02/02 12:48:02;;;;;;;;;;;;;;;6.50;54.89;100241.94;5009772;28;20017;-90
2024/02/02 12:50:27;;;;;;;;;;;;;;;6.46;55.30;100248.41;5003398;28;20005;-90
2024/02/02 12:52:54;;;;;;;;;;;;;;;6.47;55.08;100239.59;4995079;28;20382;-89
2024/02/02 12:55:20;;;;;;;;;;;;;;;6.46;56.31;100237.94;4999364;28;20353;-90
2024/02/02 12:57:46;;;;;;;;;;;;;;;6.48;56.10;100230.75;5012075;28;19996;-91
2024/02/02 13:00:14;;;;;;;;;;;;;;;6.49;56.81;100229.78;5009316;28;19933;-90
2024/02/02 13:02:40;;;;;;;;;;;;;;;6.52;56.43;100224.28;4996674;28;20046;-89
2024/02/02 13:05:10;;;;;;;;;;;;;;;6.55;56.08;100226.63;5004133;28;19995;-92
2024/02/02 13:07:36;;;;;;;;;;;;;;;6.57;56.24;100227.31;5006888;28;20056;-91
2024/02/02 13:10:01;;;;;;;;;;;;;;;6.61;57.11;100234.78;5010445;28;19972;-90
2024/02/02 13:12:27;;;;;;;;;;;;;;;6.62;56.40;100233.00;5021384;28;20391;-90
2024/02/02 13:14:53;;;;;;;;;;;;;;;6.62;56.99;100223.31;4993912;28;20447;-90
2024/02/02 13:17:19;;;;;;;;;;;;;;;6.65;57.42;100233.53;4991878;28;20049;-91
2024/02/02 13:19:45;;;;;;;;;;;;;;;6.67;56.94;100228.16;5010477;28;19914;-89
2024/02/02 13:22:19;;;;;;;;;;;;;;;6.67;57.13;100228.16;5003370;28;19940;-89
2024/02/02 13:24:49;;;;;;;;;;;;;;;6.66;57.48;100227.34;4990804;28;19972;-89
2024/02/02 13:27:18;;;;;;;;;;;;;;;6.70;57.54;100230.53;4992895;28;19918;-90
2024/02/02 13:29:47;;;;;;;;;;;;;;;6.72;56.49;100233.88;4994135;28;19916;-89
2024/02/02 13:32:17;;;;;;;;;;;;;;;6.73;57.15;100237.31;5002323;28;20485;-89
2024/02/02 13:34:42;;;;;;;;;;;;;;;6.73;57.26;100240.78;5014320;28;19917;-90
2024/02/02 13:37:09;;;;;;;;;;;;;;;6.75;57.40;100245.88;5014835;28;19920;-89
2024/02/02 13:39:35;;;;;;;;;;;;;;;6.73;56.20;100243.38;5014931;28;19945;-90
2024/02/02 13:42:04;;;;;;;;;;;;;;;6.73;57.47;100240.78;4997081;28;19971;-88
2024/02/02 13:44:31;;;;;;;;;;;;;;;6.76;56.58;100242.28;5006600;28;19922;-90
2024/02/02 13:46:59;;;;;;;;;;;;;;;6.77;57.77;100246.56;5008722;28;19965;-89
2024/02/02 13:49:28;;;;;;;;;;;;;;;6.76;57.39;100248.38;4997430;28;20000;-90
2024/02/02 13:51:54;;;;;;;;;;;;;;;6.78;56.70;100242.97;5024641;28;19918;-90
2024/02/02 13:54:21;;;;;;;;;;;;;;;6.79;56.27;100249.88;4993665;28;20334;-90
2024/02/02 13:56:47;;;;;;;;;;;;;;;6.81;57.30;100256.66;5012135;28;20408;-90
2024/02/02 13:59:21;;;;;;;;;;;;;;;6.84;56.23;100263.44;5012041;28;20005;-88
2024/02/02 14:01:47;;;;;;;;;;;;;;;6.88;56.86;100262.19;5006740;28;19934;-89
2024/02/02 14:04:13;;;;;;;;;;;;;;;6.88;57.10;100262.19;5010637;28;20480;-91
2024/02/02 14:06:39;;;;;;;;;;;;;;;6.89;55.14;100267.31;4999328;28;20047;-88
2024/02/02 14:09:08;;;;;;;;;;;;;;;6.89;56.26;100275.19;5012822;28;20399;-90
2024/02/02 14:11:34;;;;;;;;;;;;;;;6.92;56.59;100276.69;5012656;28;20370;-89
2024/02/02 14:14:02;;;;;;;;;;;;;;;6.91;56.78;100281.13;5012743;28;19970;-90
2024/02/02 14:16:30;;;;;;;;;;;;;;;6.91;55.47;100285.53;5012683;28;19921;-90
2024/02/02 14:19:08;;;;;;;;;;;;;;;6.86;55.39;100279.88;5027176;28;19955;-91
2024/02/02 14:21:37;;;;;;;;;;;;;;;6.84;55.58;100287.06;5020797;28;19980;-89
2024/02/02 14:24:05;;;;;;;;;;;;;;;6.84;54.84;100281.81;5010797;28;20144;-89
2024/02/02 14:26:33;;;;;;;;;;;;;;;6.83;53.98;100286.22;5014386;28;19914;-89
2024/02/02 14:29:00;;;;;;;;;;;;;;;6.81;54.26;100287.31;5010807;28;19917;-89
2024/02/02 14:31:26;;;;;;;;;;;;;;;6.78;54.78;100291.06;5009587;28;19958;-90
2024/02/02 14:33:52;;;;;;;;;;;;;;;6.79;54.55;100297.97;5004660;28;19925;-90
2024/02/02 14:36:19;;;;;;;;;;;;;;;6.78;55.69;100313.84;5000584;28;19917;-90
2024/02/02 14:38:47;;;;;;;;;;;;;;;6.77;55.02;100312.19;5020379;28;19972;-91
2024/02/02 14:41:13;;;;;;;;;;;;;;;6.75;55.52;100303.63;5000173;28;19922;-89
2024/02/02 14:43:39;;;;;;;;;;;;;;;6.71;55.90;100313.56;4992810;28;19928;-88
2024/02/02 14:46:07;;;;;;;;;;;;;;;6.68;55.29;100317.25;4997596;28;19922;-89
2024/02/02 14:48:32;;;;;;;;;;;;;;;6.66;56.02;100316.53;5009844;28;19917;-91
2024/02/02 14:50:58;;;;;;;;;;;;;;;6.65;54.66;100317.50;5010432;28;19939;-90
2024/02/02 14:53:24;;;;;;;;;;;;;;;6.65;55.21;100324.56;5002382;28;19917;-90
2024/02/02 14:55:50;;;;;;;;;;;;;;;6.64;55.46;100328.16;5027822;28;20000;-89
2024/02/02 14:58:16;;;;;;;;;;;;;;;6.66;54.43;100320.97;5013127;28;19968;-90
2024/02/02 15:00:44;;;;;;;;;;;;;;;6.62;57.05;100330.06;5008093;28;20366;-89
2024/02/02 15:03:10;;;;;;;;;;;;;;;6.64;56.33;100333.38;5007942;28;20323;-90
2024/02/02 15:05:36;;;;;;;;;;;;;;;6.63;56.24;100332.56;5001497;28;19917;-89
2024/02/02 15:08:01;;;;;;;;;;;;;;;6.63;55.77;100336.97;4995501;28;19921;-89
2024/02/02 15:10:27;;;;;;;;;;;;;;;6.63;55.49;100339.59;5010473;28;20317;-89
2024/02/02 15:12:53;;;;;;;;;;;;;;;6.61;55.51;100325.78;5006963;28;19924;-89
2024/02/02 15:15:18;;;;;;;;;;;;;;;6.60;57.45;100326.75;4998162;28;19918;-88
2024/02/02 15:17:44;;;;;;;;;;;;;;;6.60;57.32;100334.63;5011503;28;20351;-90
2024/02/02 15:20:09;;;;;;;;;;;;;;;6.62;57.74;100345.81;5028209;28;20474;-89
2024/02/02 15:22:35;;;;;;;;;;;;;;;6.61;57.09;100344.97;5011559;28;20008;-89
2024/02/02 15:25:01;;;;;;;;;;;;;;;6.56;58.17;100352.41;5026119;28;19918;-89
2024/02/02 15:27:26;;;;;;;;;;;;;;;6.55;55.60;100347.31;5007310;28;19922;-89
2024/02/02 15:29:51;;;;;;;;;;;;;;;6.51;57.98;100353.78;5012157;28;19918;-89
2024/02/02 15:32:17;;;;;;;;;;;;;;;6.51;57.72;100364.28;5025796;28;20408;-88
2024/02/02 15:34:42;;;;;;;;;;;;;;;6.53;55.46;100367.59;5005693;28;19937;-89
2024/02/02 15:37:07;;;;;;;;;;;;;;;6.51;57.20;100370.34;4999350;28;19917;-88
2024/02/02 15:39:33;;;;;;;;;;;;;;;6.50;57.76;100380.97;5010933;28;20413;-88
2024/02/02 15:41:58;;;;;;;;;;;;;;;6.50;58.51;100387.06;5011472;28;19920;-89
2024/02/02 15:44:24;;;;;;;;;;;;;;;6.51;57.95;100383.47;5008277;28;19921;-89
2024/02/02 15:46:49;;;;;;;;;;;;;;;6.49;56.06;100382.78;5026981;28;19917;-90
2024/02/02 15:49:14;;;;;;;;;;;;;;;6.49;58.00;100389.81;5007083;28;19923;-89
2024/02/02 15:51:40;;;;;;;;;;;;;;;6.49;58.73;100384.56;5003235;28;20031;-91
2024/02/02 15:54:05;;;;;;;;;;;;;;;6.49;58.58;100388.00;4991385;28;19918;-89
2024/02/02 15:56:31;;;;;;;;;;;;;;;6.46;56.83;100390.91;4995695;28;19956;-89
2024/02/02 15:58:56;;;;;;;;;;;;;;;6.45;57.91;100399.72;5010112;28;19972;-89
2024/02/02 16:01:21;;;;;;;;;;;;;;;6.43;58.22;100408.69;5026821;28;19946;-89
2024/02/02 16:03:47;;;;;;;;;;;;;;;6.43;58.06;100417.41;5011308;28;19921;-91
2024/02/02 16:06:18;;;;;;;;;;;;;;;6.44;58.61;100415.59;5010025;28;19922;-89
2024/02/02 16:08:44;;;;;;;;;;;;;;;6.43;58.58;100406.91;5011566;28;19913;-90
2024/02/02 16:11:09;;;;;;;;;;;;;;;6.43;58.91;100411.31;5010745;28;20399;-90
2024/02/02 16:13:34;;;;;;;;;;;;;;;6.44;58.63;100421.69;5010508;28;19917;-90
2024/02/02 16:16:00;;;;;;;;;;;;;;;6.42;58.15;100420.97;5012065;28;19920;-89
2024/02/02 16:18:25;;;;;;;;;;;;;;;6.41;58.32;100419.31;5010470;28;20012;-89
2024/02/02 16:20:50;;;;;;;;;;;;;;;6.42;58.75;100435.88;5010173;28;19917;-90
2024/02/02 16:23:16;;;;;;;;;;;;;;;6.41;59.12;100442.09;5004850;28;20391;-89
2024/02/02 16:25:41;;;;;;;;;;;;;;;6.41;58.73;100439.47;5015948;28;19921;-88
2024/02/02 16:28:07;;;;;;;;;;;;;;;6.40;59.85;100443.88;5027202;28;20003;-90
2024/02/02 16:30:32;;;;;;;;;;;;;;;6.41;58.08;100436.84;5011142;28;19913;-90
2024/02/02 16:32:57;;;;;;;;;;;;;;;6.44;58.37;100436.59;5010916;28;19920;-89
2024/02/02 16:35:23;;;;;;;;;;;;;;;6.44;59.64;100445.28;5012019;28;19914;-90
2024/02/02 16:37:48;;;;;;;;;;;;;;;6.45;59.45;100446.13;5010780;28;19913;-90
2024/02/02 16:40:13;;;;;;;;;;;;;;;6.44;59.11;100455.78;5011903;28;19920;-89
2024/02/02 16:42:40;;;;;;;;;;;;;;;6.43;59.92;100453.28;5010746;28;19920;-89
2024/02/02 16:45:05;;;;;;;;;;;;;;;6.44;59.89;100457.56;5010416;28;19928;-89
2024/02/02 16:47:31;;;;;;;;;;;;;;;6.43;59.41;100474.28;5010453;28;20292;-89
2024/02/02 16:49:56;;;;;;;;;;;;;;;6.44;60.56;100470.69;5011866;28;20008;-90
2024/02/02 16:52:22;;;;;;;;;;;;;;;6.45;60.52;100486.31;5010777;28;19920;-89
2024/02/02 16:54:47;;;;;;;;;;;;;;;6.44;61.31;100482.00;5010717;28;19937;-90
2024/02/02 16:57:13;;;;;;;;;;;;;;;6.44;60.06;100486.44;5012019;28;20307;-89
2024/02/02 16:59:38;;;;;;;;;;;;;;;6.45;60.13;100488.09;5010848;28;19960;-89
2024/02/02 17:02:04;;;;;;;;;;;;;;;6.47;57.90;100488.78;5013036;28;19921;-91
2024/02/02 17:04:29;;;;;;;;;;;;;;;6.49;58.09;100492.13;5014415;28;20017;-90
2024/02/02 17:06:55;;;;;;;;;;;;;;;6.51;60.45;100495.44;5015539;28;19918;-90
2024/02/02 17:09:20;;;;;;;;;;;;;;;6.51;60.81;100492.81;5014121;28;19905;-89
2024/02/02 17:11:45;;;;;;;;;;;;;;;6.52;60.00;100499.72;5014503;28;19929;-88
2024/02/02 17:14:11;;;;;;;;;;;;;;;6.51;60.44;100508.56;5014462;28;19914;-91
2024/02/02 17:16:36;;;;;;;;;;;;;;;6.51;59.58;100503.31;5014323;28;19921;-90
2024/02/02 17:19:02;;;;;;;;;;;;;;;6.51;60.30;100513.81;5014159;28;19914;-90
2024/02/02 17:21:27;;;;;;;;;;;;;;;6.49;61.10;100507.84;5015162;28;20000;-89
2024/02/02 17:23:52;;;;;;;;;;;;;;;6.45;61.77;100515.16;5015122;28;19971;-91
2024/02/02 17:26:18;;;;;;;;;;;;;;;6.44;60.21;100521.38;5015418;28;20461;-90
2024/02/02 17:28:43;;;;;;;;;;;;;;;6.45;61.34;100520.41;5013963;28;19968;-90
2024/02/02 17:31:12;;;;;;;;;;;;;;;6.43;60.72;100529.34;5013955;28;19913;-90
2024/02/02 17:33:38;;;;;;;;;;;;;;;6.42;60.76;100530.31;5015265;28;19937;-89
2024/02/02 17:36:08;;;;;;;;;;;;;;;6.40;61.74;100534.84;5015090;28;20414;-90
2024/02/02 17:38:33;;;;;;;;;;;;;;;6.38;61.04;100537.59;5013710;28;19914;-91
2024/02/02 17:40:58;;;;;;;;;;;;;;;6.39;60.78;100544.53;5013753;28;20004;-89
2024/02/02 17:43:23;;;;;;;;;;;;;;;6.37;61.22;100535.94;5014722;28;20382;-89
2024/02/02 17:45:49;;;;;;;;;;;;;;;6.37;61.28;100541.19;5013511;28;19924;-90
2024/02/02 17:48:14;;;;;;;;;;;;;;;6.37;60.66;100541.19;5013505;28;19913;-89
2024/02/02 17:50:43;;;;;;;;;;;;;;;6.34;61.06;100537.03;5013680;28;20287;-90
2024/02/02 17:53:08;;;;;;;;;;;;;;;6.34;61.84;100542.28;5013365;28;19921;-89
2024/02/02 17:55:33;;;;;;;;;;;;;;;6.33;63.04;100545.03;5014593;28;19913;-90
2024/02/02 17:57:59;;;;;;;;;;;;;;;6.33;61.69;100547.66;5013719;28;20374;-90
2024/02/02 18:00:24;;;;;;;;;;;;;;;6.31;61.75;100547.78;5014738;28;19915;-89
2024/02/02 18:02:50;;;;;;;;;;;;;;;6.29;61.79;100539.19;5013270;28;19914;-89
2024/02/02 18:05:15;;;;;;;;;;;;;;;6.31;62.67;100541.69;5013272;28;19925;-89
2024/02/02 18:07:40;;;;;;;;;;;;;;;6.30;61.44;100551.34;5013245;28;19952;-87
2024/02/02 18:10:07;;;;;;;;;;;;;;;6.30;61.40;100551.34;5013221;28;20054;-90
2024/02/02 18:12:37;;;;;;;;;;;;;;;6.32;62.08;100561.72;5012493;28;20399;-89
2024/02/02 18:15:04;;;;;;;;;;;;;;;6.29;61.86;100551.47;5014285;28;19918;-89
2024/02/02 18:17:31;;;;;;;;;;;;;;;6.28;62.52;100557.69;5012995;28;19964;-90
2024/02/02 18:19:56;;;;;;;;;;;;;;;6.26;61.77;100560.44;5013250;28;20398;-90
2024/02/02 18:22:21;;;;;;;;;;;;;;;6.24;61.32;100559.72;5013275;28;19914;-89
2024/02/02 18:24:47;;;;;;;;;;;;;;;6.24;62.85;100567.59;5014315;28;19918;-89
2024/02/02 18:27:12;;;;;;;;;;;;;;;6.24;62.40;100566.75;5012801;28;19913;-89
2024/02/02 18:29:37;;;;;;;;;;;;;;;6.23;61.48;100571.16;5014123;28;20291;-89
2024/02/02 18:32:03;;;;;;;;;;;;;;;6.26;61.37;100572.72;5014046;28;19992;-89
2024/02/02 18:34:28;;;;;;;;;;;;;;;6.23;61.44;100571.16;5014086;28;20051;-89
2024/02/02 18:36:54;;;;;;;;;;;;;;;6.25;61.83;100579.75;5012915;28;20402;-89
2024/02/02 18:39:19;;;;;;;;;;;;;;;6.23;62.33;100573.78;5014113;28;19976;-89
2024/02/02 18:41:44;;;;;;;;;;;;;;;6.24;61.85;100570.22;5012534;28;19920;-90
2024/02/02 18:44:10;;;;;;;;;;;;;;;6.26;61.93;100577.97;5012367;28;20413;-89
2024/02/02 18:46:36;;;;;;;;;;;;;;;6.25;62.03;100568.44;5012846;28;19920;-89
2024/02/02 18:49:04;;;;;;;;;;;;;;;6.26;62.05;100564.84;5012737;28;19920;-90
2024/02/02 18:51:30;;;;;;;;;;;;;;;6.24;60.88;100567.59;5012586;28;19968;-90
2024/02/02 18:53:55;;;;;;;;;;;;;;;6.29;60.67;100573.28;5012364;28;19921;-89
2024/02/02 18:56:20;;;;;;;;;;;;;;;6.29;60.69;100573.28;5012331;28;19920;-89
2024/02/02 18:58:47;;;;;;;;;;;;;;;6.28;60.52;100579.50;5012403;28;19961;-91
2024/02/02 19:01:28;;;;;;;;;;;;;;;6.23;60.79;100581.66;5012209;28;19979;-89
2024/02/02 19:03:53;;;;;;;;;;;;;;;6.23;61.57;100589.53;5012071;28;19960;-89
2024/02/02 19:06:19;;;;;;;;;;;;;;;6.24;61.29;100582.50;5012228;28;19952;-90
2024/02/02 19:08:44;;;;;;;;;;;;;;;6.24;61.52;100580.72;5012009;28;20390;-89
2024/02/02 19:11:13;;;;;;;;;;;;;;;6.23;60.82;100581.66;5012088;28;19922;-90
2024/02/02 19:13:38;;;;;;;;;;;;;;;6.24;60.98;100578.09;5012056;28;19913;-91
2024/02/02 19:16:03;;;;;;;;;;;;;;;6.23;60.24;100581.66;5013316;28;19913;-89
2024/02/02 19:18:29;;;;;;;;;;;;;;;6.23;60.57;100584.28;5012066;28;19943;-90
2024/02/02 19:20:54;;;;;;;;;;;;;;;6.26;59.77;100588.44;5011738;28;20303;-89
2024/02/02 19:23:19;;;;;;;;;;;;;;;6.23;60.44;100580.84;5011859;28;19913;-89
2024/02/02 19:25:45;;;;;;;;;;;;;;;6.22;60.25;100589.66;5012135;28;20015;-90
2024/02/02 19:28:10;;;;;;;;;;;;;;;6.21;60.55;100591.44;5012062;28;19914;-88
2024/02/02 19:30:35;;;;;;;;;;;;;;;6.22;59.94;100594.91;5011926;28;19917;-89
2024/02/02 19:33:01;;;;;;;;;;;;;;;6.17;60.44;100587.41;5011774;28;19921;-89
2024/02/02 19:35:27;;;;;;;;;;;;;;;6.17;60.40;100597.91;5011738;28;19920;-89
2024/02/02 19:37:54;;;;;;;;;;;;;;;6.17;60.28;100592.66;5011693;28;19949;-90
2024/02/02 19:40:19;;;;;;;;;;;;;;;6.17;60.13;100586.56;5012938;28;19913;-89
2024/02/02 19:42:46;;;;;;;;;;;;;;;6.14;60.39;100587.66;5012940;28;19913;-89
2024/02/02 19:45:11;;;;;;;;;;;;;;;6.12;60.46;100592.19;5011334;28;20304;-88
2024/02/02 19:47:36;;;;;;;;;;;;;;;6.13;61.43;100599.09;5011452;28;19920;-90
2024/02/02 19:50:02;;;;;;;;;;;;;;;6.11;61.00;100601.00;5011321;28;19988;-89
2024/02/02 19:52:27;;;;;;;;;;;;;;;6.11;60.34;100595.78;5011368;28;19921;-89
2024/02/02 19:54:52;;;;;;;;;;;;;;;6.11;60.08;100597.56;5011282;28;19944;-89
2024/02/02 19:57:18;;;;;;;;;;;;;;;6.10;60.15;100596.72;5012665;28;19921;-90
2024/02/02 19:59:43;;;;;;;;;;;;;;;6.09;60.55;100602.94;5011275;28;19916;-89
2024/02/02 20:02:11;;;;;;;;;;;;;;;6.10;60.97;100604.59;5012616;28;19920;-89
2024/02/02 20:04:36;;;;;;;;;;;;;;;6.10;60.60;100603.75;5011130;28;20335;-89
2024/02/02 20:07:01;;;;;;;;;;;;;;;6.09;61.04;100599.47;5012470;28;19919;-89
2024/02/02 20:09:26;;;;;;;;;;;;;;;6.07;60.62;100601.38;5011020;28;20004;-91
2024/02/02 20:11:52;;;;;;;;;;;;;;;6.03;61.59;100606.03;5011386;28;19914;-89
2024/02/02 20:14:17;;;;;;;;;;;;;;;6.03;61.18;100612.13;5012463;28;19917;-89
2024/02/02 20:16:42;;;;;;;;;;;;;;;6.03;61.31;100609.50;5010989;28;19936;-89
2024/02/02 20:19:08;;;;;;;;;;;;;;;6.03;61.40;100613.91;5010854;28;19909;-90
2024/02/02 20:21:33;;;;;;;;;;;;;;;6.02;61.50;100610.44;5012077;28;20323;-90
2024/02/02 20:23:58;;;;;;;;;;;;;;;6.01;61.52;100621.06;5012040;28;19917;-89
2024/02/02 20:26:24;;;;;;;;;;;;;;;6.00;61.63;100616.78;5010869;28;19995;-89
2024/02/02 20:28:53;;;;;;;;;;;;;;;6.00;61.30;100611.53;5010826;28;20453;-90
2024/02/02 20:31:18;;;;;;;;;;;;;;;5.99;61.56;100610.69;5012079;28;19913;-89
2024/02/02 20:33:44;;;;;;;;;;;;;;;5.99;60.93;100607.25;5010853;28;19914;-89
2024/02/02 20:36:09;;;;;;;;;;;;;;;5.97;60.97;100615.22;5011897;28;20386;-90
2024/02/02 20:38:35;;;;;;;;;;;;;;;5.96;60.71;100617.97;5010835;28;19920;-89
2024/02/02 20:41:04;;;;;;;;;;;;;;;5.94;60.90;100609.38;5012203;28;20308;-89
2024/02/02 20:43:30;;;;;;;;;;;;;;;5.94;61.33;100614.59;5012119;28;19982;-88
2024/02/02 20:45:56;;;;;;;;;;;;;;;5.94;61.86;100611.97;5012133;28;20461;-89
2024/02/02 20:48:23;;;;;;;;;;;;;;;5.92;61.94;100617.34;5010739;28;19920;-89
2024/02/02 20:50:49;;;;;;;;;;;;;;;5.94;60.89;100617.22;5010776;28;20375;-90
2024/02/02 20:53:14;;;;;;;;;;;;;;;5.94;61.01;100614.59;5010739;28;19916;-90
2024/02/02 20:55:39;;;;;;;;;;;;;;;5.92;60.50;100613.91;5010522;28;19914;-89
2024/02/02 20:58:05;;;;;;;;;;;;;;;5.88;60.41;100608.03;5010550;28;19913;-88
2024/02/02 21:00:30;;;;;;;;;;;;;;;5.86;61.00;100612.56;5010531;28;19921;-89
2024/02/02 21:02:55;;;;;;;;;;;;;;;5.86;61.24;100616.97;5010598;28;19920;-88
2024/02/02 21:05:21;;;;;;;;;;;;;;;5.84;61.52;100611.00;5010820;28;19917;-89
2024/02/02 21:07:46;;;;;;;;;;;;;;;5.85;61.75;100617.94;5010653;28;19920;-90
2024/02/02 21:10:11;;;;;;;;;;;;;;;5.84;61.19;100616.25;5010632;28;19967;-90
2024/02/02 21:12:37;;;;;;;;;;;;;;;5.83;60.68;100620.66;5010668;28;19936;-90
2024/02/02 21:15:03;;;;;;;;;;;;;;;5.81;61.99;100616.50;5012052;28;19919;-90
2024/02/02 21:17:31;;;;;;;;;;;;;;;5.81;61.84;100619.13;5010561;28;20402;-89
2024/02/02 21:19:58;;;;;;;;;;;;;;;5.80;61.96;100614.84;5012393;28;20361;-89
2024/02/02 21:22:23;;;;;;;;;;;;;;;5.77;61.26;100615.06;5011611;28;19913;-89
2024/02/02 21:24:49;;;;;;;;;;;;;;;5.73;62.39;100617.94;5010519;28;19925;-90
2024/02/02 21:27:14;;;;;;;;;;;;;;;5.72;61.89;100615.44;5011901;28;19913;-89
2024/02/02 21:29:40;;;;;;;;;;;;;;;5.70;62.49;100617.34;5010578;28;19913;-90
2024/02/02 21:32:05;;;;;;;;;;;;;;;5.69;61.99;100611.28;5010435;28;20000;-89
2024/02/02 21:34:30;;;;;;;;;;;;;;;5.70;61.08;100610.31;5011760;28;19921;-88
2024/02/02 21:36:56;;;;;;;;;;;;;;;5.71;60.78;100611.16;5010337;28;19913;-89
2024/02/02 21:39:21;;;;;;;;;;;;;;;5.69;61.46;100613.06;5011615;28;20383;-88
2024/02/02 21:41:46;;;;;;;;;;;;;;;5.68;60.98;100614.00;5011459;28;19964;-88
2024/02/02 21:44:11;;;;;;;;;;;;;;;5.67;61.37;100617.59;5009887;28;19921;-88
2024/02/02 21:46:37;;;;;;;;;;;;;;;5.67;61.31;100609.72;5010403;28;19972;-88
2024/02/02 21:49:02;;;;;;;;;;;;;;;5.66;61.58;100606.28;5013677;28;19945;-89
2024/02/02 21:51:28;;;;;;;;;;;;;;;5.63;61.50;100597.81;5013697;28;19914;-88
2024/02/02 21:53:53;;;;;;;;;;;;;;;5.63;61.57;100611.75;5014773;28;19913;-89
2024/02/02 21:56:19;;;;;;;;;;;;;;;5.63;61.34;100603.91;5013435;28;19914;-88
2024/02/02 21:58:44;;;;;;;;;;;;;;;5.62;61.36;100604.84;5014858;28;20466;-88
2024/02/02 22:01:09;;;;;;;;;;;;;;;5.61;61.30;100611.03;5013536;28;19913;-88
2024/02/02 22:03:36;;;;;;;;;;;;;;;5.59;61.17;100610.34;5014967;28;19913;-88
2024/02/02 22:06:04;;;;;;;;;;;;;;;5.58;61.17;100608.66;5014686;28;19917;-88
2024/02/02 22:08:30;;;;;;;;;;;;;;;5.58;61.90;100610.44;5013383;28;19913;-88
2024/02/02 22:10:55;;;;;;;;;;;;;;;5.59;61.54;100610.34;5014676;28;20012;-88
2024/02/02 22:13:20;;;;;;;;;;;;;;;5.58;62.10;100603.44;5013281;28;20391;-87
2024/02/02 22:15:46;;;;;;;;;;;;;;;5.58;61.42;100602.59;5013669;28;19944;-88
2024/02/02 22:18:11;;;;;;;;;;;;;;;5.56;61.41;100613.19;5013226;28;19913;-88
2024/02/02 22:20:37;;;;;;;;;;;;;;;5.55;61.16;100601.03;5013164;28;19914;-88
2024/02/02 22:23:02;;;;;;;;;;;;;;;5.55;61.45;100601.03;5013330;28;19914;-88
2024/02/02 22:25:27;;;;;;;;;;;;;;;5.53;61.88;100597.72;5014880;28;19917;-87
2024/02/02 22:27:53;;;;;;;;;;;;;;;5.52;61.38;100596.03;5014352;28;20044;-88
2024/02/02 22:30:19;;;;;;;;;;;;;;;5.53;61.88;100597.72;5013010;28;20318;-88
2024/02/02 22:32:44;;;;;;;;;;;;;;;5.53;61.95;100591.63;5013941;28;19914;-88
2024/02/02 22:35:11;;;;;;;;;;;;;;;5.44;63.95;100593.19;5012850;28;19945;-87